Time;durP1;ratioP1;P1;durP2;ratioP2;P2;SDS_P1;SDS_P2;PMS_P1;PMS_P2;Temp;Humidity;BMP_temperature;BMP_pressure;BME280_temperature;BME280_humidity;BME280_pressure;Samples;Min_cycle;Max_cycle;Signal;HPM_P1;HPM_P2
2023/02/23 00:01:16;;;;;;;20.50;9.87;;;;;;;-145.69;100.00;52424.59;5135573;27;20713;-83
2023/02/23 00:03:43;;;;;;;18.03;9.30;;;;;;;-145.69;100.00;52440.44;5135298;27;20220;-84
2023/02/23 00:06:11;;;;;;;18.40;9.10;;;;;;;-145.69;100.00;52408.75;5135417;27;20204;-83
2023/02/23 00:08:38;;;;;;;19.87;9.63;;;;;;;-145.69;100.00;52424.59;5135451;27;20600;-83
2023/02/23 00:11:06;;;;;;;21.90;9.63;;;;;;;-145.69;100.00;52408.75;5135539;27;20204;-84
2023/02/23 00:13:36;;;;;;;23.30;9.67;;;;;;;-145.69;100.00;52400.81;5134167;27;20193;-83
2023/02/23 00:16:05;;;;;;;23.23;8.53;;;;;;;-145.69;100.00;52396.84;5135585;27;20249;-83
2023/02/23 00:18:43;;;;;;;16.07;8.83;;;;;;;-145.69;100.00;52404.78;5136111;27;20231;-83
2023/02/23 00:21:13;;;;;;;18.53;9.13;;;;;;;-145.69;100.00;52406.75;5135777;27;20224;-83
2023/02/23 00:23:40;;;;;;;25.93;9.37;;;;;;;-145.69;100.00;52410.72;5135928;27;20200;-82
2023/02/23 00:26:07;;;;;;;21.50;9.60;;;;;;;-145.69;100.00;52408.75;5135697;27;20678;-82
2023/02/23 00:28:34;;;;;;;20.30;8.83;;;;;;;-145.69;100.00;52398.84;5135332;27;20260;-82
2023/02/23 00:31:02;;;;;;;16.93;8.90;;;;;;;-145.69;100.00;52442.41;5135469;27;20719;-83
2023/02/23 00:33:30;;;;;;;20.47;9.40;;;;;;;-145.69;100.00;52438.44;5133966;27;20200;-83
2023/02/23 00:36:03;;;;;;;17.07;9.20;;;;;;;-145.69;100.00;52416.66;5135029;27;20644;-83
2023/02/23 00:38:33;;;;;;;20.53;8.80;;;;;;;-145.69;100.00;52436.47;5135027;27;20231;-83
2023/02/23 00:41:00;;;;;;;23.57;9.00;;;;;;;-145.69;100.00;52412.69;5134824;27;20289;-83
2023/02/23 00:43:27;;;;;;;18.90;7.70;;;;;;;-145.69;100.00;52400.81;5135257;27;20667;-83
2023/02/23 00:45:54;;;;;;;15.93;8.57;;;;;;;-145.69;100.00;52444.38;5135270;27;20620;-83
2023/02/23 00:48:21;;;;;;;21.80;9.27;;;;;;;-145.69;100.00;52416.66;5134841;27;20204;-84
2023/02/23 00:50:49;;;;;;;18.10;8.37;;;;;;;-145.69;100.00;52452.31;5134644;27;20239;-83
2023/02/23 00:53:18;;;;;;;17.13;9.13;;;;;;;-145.69;100.00;52408.75;5134630;27;20200;-82
2023/02/23 00:55:44;;;;;;;20.53;8.10;;;;;;;-145.69;100.00;52388.94;5134816;27;20231;-84
2023/02/23 00:58:12;;;;;;;21.77;8.70;;;;;;;-145.69;100.00;52458.25;5134840;27;20200;-83
2023/02/23 01:00:41;;;;;;;16.83;8.77;;;;;;;-145.69;100.00;52408.75;5134502;27;20791;-83
2023/02/23 01:03:08;;;;;;;20.87;9.07;;;;;;;-145.69;100.00;52384.97;5134275;27;20200;-83
2023/02/23 01:05:34;;;;;;;16.57;8.03;;;;;;;-145.69;100.00;52456.28;5134441;27;20207;-83
2023/02/23 01:08:01;;;;;;;17.27;7.00;;;;;;;-145.69;100.00;52444.38;5134364;27;20197;-83
2023/02/23 01:10:29;;;;;;;17.67;7.27;;;;;;;-145.69;100.00;52396.84;5134787;27;20196;-83
2023/02/23 01:12:55;;;;;;;21.30;9.30;;;;;;;-145.69;100.00;52414.69;5126628;27;20219;-83
2023/02/23 01:15:22;;;;;;;18.97;9.00;;;;;;;-145.69;100.00;52412.69;5114063;28;20590;-83
2023/02/23 01:17:48;;;;;;;21.30;8.00;;;;;;;-145.69;100.00;52458.25;5112883;28;20229;-83
2023/02/23 01:20:17;;;;;;;19.20;8.20;;;;;;;-145.69;100.00;52460.22;5114070;28;20197;-82
2023/02/23 01:22:47;;;;;;;16.07;7.70;;;;;;;-145.69;100.00;52412.69;5114302;28;20225;-83
2023/02/23 01:25:14;;;;;;;15.47;7.67;;;;;;;-145.69;100.00;52448.34;5114391;28;20212;-82
2023/02/23 01:27:43;;;;;;;15.27;6.90;;;;;;;-145.69;100.00;52452.31;5113902;28;20212;-82
2023/02/23 01:30:12;;;;;;;14.13;6.10;;;;;;;-145.69;100.00;52438.44;5132600;28;20228;-82
2023/02/23 01:32:39;;;;;;;13.73;6.33;;;;;;;-145.69;100.00;52404.78;5134943;27;20201;-82
2023/02/23 01:35:08;;;;;;;13.17;5.60;;;;;;;-145.69;100.00;52440.44;5132960;27;20201;-82
2023/02/23 01:37:35;;;;;;;12.17;6.13;;;;;;;-145.69;100.00;52430.53;5134686;27;20200;-82
2023/02/23 01:40:04;;;;;;;17.83;8.10;;;;;;;-145.69;100.00;52404.78;5134745;28;20200;-83
2023/02/23 01:42:31;;;;;;;17.30;7.13;;;;;;;-145.69;100.00;52434.47;5134193;27;20217;-82
2023/02/23 01:45:25;;;;;;;13.77;6.57;;;;;;;-145.69;100.00;52456.28;5135870;27;20197;-83
2023/02/23 01:47:56;;;;;;;10.20;6.03;;;;;;;-145.69;100.00;52438.44;5138675;27;20204;-83
2023/02/23 01:50:25;;;;;;;16.17;5.67;;;;;;;-145.69;100.00;52422.59;5138396;27;20563;-82
2023/02/23 01:52:52;;;;;;;14.93;7.97;;;;;;;-145.69;100.00;52450.31;5138233;27;20204;-82
2023/02/23 01:55:23;;;;;;;17.13;8.17;;;;;;;-145.69;100.00;52440.44;5138511;27;20673;-82
2023/02/23 01:57:54;;;;;;;16.33;7.47;;;;;;;-145.69;100.00;52412.69;5138427;27;20207;-83
2023/02/23 02:00:25;;;;;;;14.37;7.10;;;;;;;-145.69;100.00;52432.50;5137946;27;20203;-83
2023/02/23 02:02:53;;;;;;;14.13;7.50;;;;;;;-145.69;100.00;52468.16;5138367;27;20228;-83
2023/02/23 02:05:20;;;;;;;12.83;6.50;;;;;;;-145.69;100.00;52440.44;5137364;27;20767;-83
2023/02/23 02:07:57;;;;;;;11.77;5.77;;;;;;;-145.69;100.00;52448.34;5138254;27;20196;-83
2023/02/23 02:10:44;;;;;;;10.33;5.17;;;;;;;-145.69;100.00;52412.69;5137981;27;20197;-82
2023/02/23 02:13:17;;;;;;;8.97;5.20;;;;;;;-145.69;100.00;52402.78;5136799;27;20200;-81
2023/02/23 02:16:05;;;;;;;8.80;4.60;;;;;;;-145.69;100.00;52418.63;5137892;27;20203;-83
2023/02/23 02:18:41;;;;;;;12.03;6.33;;;;;;;-145.69;100.00;52456.28;5137713;27;20250;-83
2023/02/23 02:21:53;;;;;;;10.77;5.80;;;;;;;-145.69;100.00;52420.63;5137776;27;20215;-83
2023/02/23 02:24:47;;;;;;;12.17;4.90;;;;;;;-145.69;100.00;52424.59;5088801;27;20694;-83
2023/02/23 02:27:31;;;;;;;12.07;5.17;;;;;;;-145.69;100.00;52458.25;5137035;27;20224;-81
2023/02/23 02:30:25;;;;;;;10.53;5.60;;;;;;;-145.69;100.00;52420.63;5137321;27;20203;-81
2023/02/23 02:33:44;;;;;;;16.37;5.87;;;;;;;-145.69;100.00;52424.59;5137134;27;20254;-82
2023/02/23 02:36:52;;;;;;;8.17;4.63;;;;;;;-145.69;100.00;52424.59;5029811;28;20278;-81
2023/02/23 02:39:33;;;;;;;14.33;5.37;;;;;;;-145.69;100.00;52440.44;5136484;27;20197;-83
2023/02/23 02:42:12;;;;;;;12.27;6.00;;;;;;;-145.69;100.00;52408.75;5136635;27;20682;-83
2023/02/23 02:44:48;;;;;;;12.40;6.00;;;;;;;-145.69;100.00;52422.59;5136964;27;20256;-83
2023/02/23 02:47:21;;;;;;;12.13;5.93;;;;;;;-145.69;100.00;52404.78;5137000;27;20200;-83
2023/02/23 02:49:53;;;;;;;11.30;5.50;;;;;;;-145.69;100.00;52416.66;5136570;27;20208;-83
2023/02/23 02:52:28;;;;;;;12.23;5.07;;;;;;;-145.69;100.00;52426.56;5136448;27;20200;-83
2023/02/23 02:55:00;;;;;;;7.97;4.77;;;;;;;-145.69;100.00;52416.66;5137073;27;20196;-82
2023/02/23 02:57:30;;;;;;;9.90;5.10;;;;;;;-145.69;100.00;52420.63;5135915;27;20208;-83
2023/02/23 04:18:31;;;;;;;5.70;3.03;;;;;;;-145.69;100.00;52458.25;5135203;27;20196;-84
2023/02/23 04:20:59;;;;;;;7.57;3.40;;;;;;;-145.69;100.00;52456.28;5134849;27;20197;-83
2023/02/23 04:23:25;;;;;;;4.37;2.13;;;;;;;-145.69;100.00;52484.00;5135066;27;20200;-83
2023/02/23 04:25:53;;;;;;;5.07;2.30;;;;;;;-145.69;100.00;52416.66;5135226;27;20197;-83
2023/02/23 04:28:20;;;;;;;5.50;2.00;;;;;;;-145.69;100.00;52468.16;5134939;27;20197;-84
2023/02/23 04:30:47;;;;;;;3.00;2.00;;;;;;;-145.69;100.00;52452.31;5134945;27;20205;-84
2023/02/23 04:33:15;;;;;;;6.97;2.77;;;;;;;-145.69;100.00;52418.63;5134714;27;20681;-83
2023/02/23 04:35:42;;;;;;;4.13;2.20;;;;;;;-145.69;100.00;52428.53;5134698;27;20525;-83
2023/02/23 04:38:08;;;;;;;3.30;2.40;;;;;;;-145.69;100.00;52416.66;5135277;27;20208;-83
2023/02/23 04:40:35;;;;;;;5.90;2.13;;;;;;;-145.69;100.00;52424.59;5135098;27;20208;-82
2023/02/23 04:43:01;;;;;;;4.77;2.13;;;;;;;-145.69;100.00;52452.31;5135067;27;20687;-84
2023/02/23 04:45:28;;;;;;;6.10;2.60;;;;;;;-145.69;100.00;52485.97;5134749;27;20204;-83
2023/02/23 04:47:55;;;;;;;6.87;2.57;;;;;;;-145.69;100.00;52436.47;5135276;27;20193;-83
2023/02/23 04:50:23;;;;;;;5.23;2.07;;;;;;;-145.69;100.00;52446.38;5135430;27;20201;-82
2023/02/23 04:52:49;;;;;;;3.33;1.90;;;;;;;-145.69;100.00;52444.38;5134501;27;20201;-82
2023/02/23 04:55:18;;;;;;;3.90;2.35;;;;;;;-145.69;100.00;52440.44;5133194;27;20446;-83
2023/02/23 04:57:45;;;;;;;4.40;1.97;;;;;;;-145.69;100.00;52452.31;5134604;27;20197;-82
2023/02/23 05:00:13;;;;;;;3.57;2.20;;;;;;;-145.69;100.00;52476.06;5134521;27;20555;-83
2023/02/23 05:02:39;;;;;;;3.80;2.27;;;;;;;-145.69;100.00;52418.63;5134615;27;20221;-83
2023/02/23 05:05:08;;;;;;;8.10;2.10;;;;;;;-145.69;100.00;52460.22;5134552;27;20217;-84
2023/02/23 05:07:36;;;;;;;8.27;2.17;;;;;;;-145.69;100.00;52412.69;5134384;27;20201;-83
2023/02/23 05:10:03;;;;;;;4.47;1.90;;;;;;;-145.69;100.00;52464.19;5134745;27;20200;-83
2023/02/23 05:12:30;;;;;;;4.77;2.33;;;;;;;-145.69;100.00;52426.56;5114275;28;20223;-83
2023/02/23 05:14:57;;;;;;;3.80;1.77;;;;;;;-145.69;100.00;52450.31;5114014;28;20284;-85
2023/02/23 05:17:23;;;;;;;4.03;1.77;;;;;;;-145.69;100.00;52428.53;5114144;28;20564;-85
2023/02/23 05:19:50;;;;;;;2.90;1.60;;;;;;;-145.69;100.00;52444.38;5113617;28;20289;-84
2023/02/23 05:22:17;;;;;;;3.03;2.00;;;;;;;-145.69;100.00;52517.66;5114988;28;20225;-82
2023/02/23 05:24:45;;;;;;;9.00;1.93;;;;;;;-145.69;100.00;52428.53;5114667;28;20193;-81
2023/02/23 05:27:12;;;;;;;2.87;1.80;;;;;;;-145.69;100.00;52458.25;5113469;28;20205;-78
2023/02/23 05:29:39;;;;;;;8.33;2.23;;;;;;;-145.69;100.00;52458.25;5113263;28;20201;-81
2023/02/23 05:32:06;;;;;;;9.73;2.30;;;;;;;-145.69;100.00;52468.16;5112971;28;20206;-79
2023/02/23 05:34:32;;;;;;;9.17;2.00;;;;;;;-145.69;100.00;52470.13;5116399;28;20196;-79
2023/02/23 05:36:59;;;;;;;12.00;2.20;;;;;;;-145.69;100.00;52444.38;5132758;27;20200;-80
2023/02/23 05:39:25;;;;;;;5.20;2.17;;;;;;;-145.69;100.00;52480.03;5133070;28;20667;-78
2023/02/23 05:41:53;;;;;;;10.80;3.00;;;;;;;-145.69;100.00;52452.31;5134444;27;20552;-83
2023/02/23 05:44:20;;;;;;;6.47;3.20;;;;;;;-145.69;100.00;52474.09;5133239;28;20196;-83
2023/02/23 05:46:46;;;;;;;10.57;2.80;;;;;;;-145.69;100.00;52446.38;5133947;27;20528;-82
2023/02/23 05:49:13;;;;;;;7.90;2.23;;;;;;;-145.69;100.00;52468.16;5134060;27;20193;-83
2023/02/23 05:51:39;;;;;;;6.43;2.60;;;;;;;-145.69;100.00;52442.41;5134189;27;20193;-83
2023/02/23 05:54:06;;;;;;;11.57;2.60;;;;;;;-145.69;100.00;52495.88;5134082;27;20673;-82
2023/02/23 05:56:33;;;;;;;9.37;2.53;;;;;;;-145.69;100.00;52464.19;5134097;27;20228;-83
2023/02/23 05:59:03;;;;;;;8.23;2.97;;;;;;;-145.69;100.00;52466.16;5133741;27;20201;-81
2023/02/23 06:01:30;;;;;;;12.40;2.60;;;;;;;-145.69;100.00;52472.13;5133877;27;20197;-83
2023/02/23 06:03:57;;;;;;;9.33;2.40;;;;;;;-145.69;100.00;52440.44;5133524;27;20236;-84
2023/02/23 06:06:24;;;;;;;9.17;2.83;;;;;;;-145.69;100.00;52440.44;5133857;27;20283;-84
2023/02/23 06:08:51;;;;;;;11.83;2.90;;;;;;;-145.69;100.00;52440.44;5133677;28;20622;-84
2023/02/23 06:11:17;;;;;;;7.27;3.00;;;;;;;-145.69;100.00;52434.47;5133874;28;20197;-84
2023/02/23 06:13:44;;;;;;;9.20;2.70;;;;;;;-145.69;100.00;52456.28;5133474;27;20211;-84
2023/02/23 06:16:12;;;;;;;11.83;2.97;;;;;;;-145.69;100.00;52480.03;5133283;28;20197;-84
2023/02/23 06:18:38;;;;;;;8.80;2.83;;;;;;;-145.69;100.00;52482.00;5133883;27;20193;-84
2023/02/23 06:21:05;;;;;;;6.27;3.00;;;;;;;-145.69;100.00;52460.22;5133959;27;20204;-83
2023/02/23 06:23:32;;;;;;;12.00;3.17;;;;;;;-145.69;100.00;52452.31;5133774;27;20228;-84
2023/02/23 06:25:59;;;;;;;11.93;3.43;;;;;;;-145.69;100.00;52428.53;5133756;28;20204;-84
2023/02/23 06:28:26;;;;;;;9.40;3.43;;;;;;;-145.69;100.00;52468.16;5133861;27;20249;-84
2023/02/23 06:30:53;;;;;;;12.13;3.57;;;;;;;-145.69;100.00;52480.03;5134922;27;20228;-83
2023/02/23 06:33:21;;;;;;;12.03;3.33;;;;;;;-145.69;100.00;52468.16;5137390;27;20279;-84
2023/02/23 06:35:48;;;;;;;9.03;3.80;;;;;;;-145.69;100.00;52460.22;5137057;27;20212;-84
2023/02/23 06:38:15;;;;;;;9.90;3.53;;;;;;;-145.69;100.00;52460.22;5137510;27;20197;-84
2023/02/23 06:40:42;;;;;;;7.53;3.70;;;;;;;-145.69;100.00;52464.19;5137357;27;20197;-84
2023/02/23 06:43:09;;;;;;;6.00;3.27;;;;;;;-145.69;100.00;52454.28;5137081;27;20224;-84
2023/02/23 06:45:35;;;;;;;10.27;3.50;;;;;;;-145.69;100.00;52511.72;5136897;27;20193;-84
2023/02/23 06:48:02;;;;;;;8.37;3.90;;;;;;;-145.69;100.00;52450.31;5137316;27;20203;-84
2023/02/23 06:50:29;;;;;;;6.10;3.63;;;;;;;-145.69;100.00;52460.22;5137303;27;20292;-84
2023/02/23 06:52:57;;;;;;;18.40;3.80;;;;;;;-145.69;100.00;52468.16;5137052;27;20196;-84
2023/02/23 06:55:24;;;;;;;9.80;3.20;;;;;;;-145.69;100.00;52442.41;5136926;27;20287;-84
2023/02/23 06:57:52;;;;;;;14.90;4.97;;;;;;;-145.69;100.00;52476.06;5136801;27;20203;-84
2023/02/23 07:00:19;;;;;;;11.87;3.27;;;;;;;-145.69;100.00;52440.44;5137084;27;20208;-84
2023/02/23 07:02:46;;;;;;;9.83;3.50;;;;;;;-145.69;100.00;52432.50;5136904;27;20196;-84
2023/02/23 07:05:12;;;;;;;11.33;3.20;;;;;;;-145.69;100.00;52458.25;5136623;27;20220;-83
2023/02/23 07:07:40;;;;;;;7.90;3.30;;;;;;;-145.69;100.00;52470.13;5136775;27;20205;-84
2023/02/23 07:10:07;;;;;;;6.13;2.80;;;;;;;-145.69;100.00;52480.03;5136733;27;20224;-84
2023/02/23 07:12:34;;;;;;;7.60;2.90;;;;;;;-145.69;100.00;52476.06;5136496;27;20204;-84
2023/02/23 07:15:00;;;;;;;10.83;3.20;;;;;;;-145.69;100.00;52476.06;5136568;27;20196;-83
2023/02/23 07:17:27;;;;;;;12.07;3.53;;;;;;;-145.69;100.00;52466.16;5136451;27;20196;-84
2023/02/23 07:19:53;;;;;;;12.53;3.80;;;;;;;-145.69;100.00;52460.22;5133633;27;20674;-83
2023/02/23 07:22:21;;;;;;;10.47;3.50;;;;;;;-145.69;100.00;52460.22;5136342;27;20754;-84
2023/02/23 07:24:48;;;;;;;12.27;3.47;;;;;;;-145.69;100.00;52456.28;5136293;27;20284;-83
2023/02/23 07:27:15;;;;;;;8.53;2.63;;;;;;;-145.69;100.00;52452.31;5136332;27;20197;-84
2023/02/23 07:29:41;;;;;;;6.70;3.30;;;;;;;-145.69;100.00;52476.06;5136356;27;20201;-84
2023/02/23 07:32:09;;;;;;;9.73;3.30;;;;;;;-145.69;100.00;52418.63;5136409;27;20250;-84
2023/02/23 07:34:36;;;;;;;9.43;3.10;;;;;;;-145.69;100.00;52432.50;5136398;27;20201;-83
2023/02/23 07:37:02;;;;;;;12.13;4.20;;;;;;;-145.69;100.00;52456.28;5135821;27;20230;-84
2023/02/23 07:39:29;;;;;;;8.80;3.37;;;;;;;-145.69;100.00;52410.72;5136080;27;20203;-84
2023/02/23 07:41:57;;;;;;;10.13;3.20;;;;;;;-145.69;100.00;52468.16;5135435;27;20200;-84
2023/02/23 07:44:24;;;;;;;7.63;3.23;;;;;;;-145.69;100.00;52484.00;5135969;27;20235;-84
2023/02/23 07:46:51;;;;;;;11.50;3.73;;;;;;;-145.69;100.00;52458.25;5135999;27;20710;-84
2023/02/23 07:49:18;;;;;;;8.33;3.10;;;;;;;-145.69;100.00;52450.31;5135750;27;20196;-84
2023/02/23 07:51:44;;;;;;;9.23;3.33;;;;;;;-145.69;100.00;52456.28;5135600;27;20200;-83
2023/02/23 07:54:11;;;;;;;8.90;3.57;;;;;;;-145.69;100.00;52448.34;5135668;27;20296;-84
2023/02/23 07:56:37;;;;;;;6.80;3.47;;;;;;;-145.69;100.00;52460.22;5135471;27;20200;-84
2023/02/23 07:59:05;;;;;;;5.27;3.03;;;;;;;-145.69;100.00;52428.53;5135886;27;20203;-83
2023/02/23 08:01:31;;;;;;;10.87;3.50;;;;;;;-145.69;100.00;52440.44;5135690;27;20667;-84
2023/02/23 08:03:58;;;;;;;7.17;3.40;;;;;;;-145.69;100.00;52442.41;5135440;27;20244;-68
2023/02/23 08:06:24;;;;;;;8.17;3.37;;;;;;;-145.69;100.00;52406.75;5134976;27;20203;-84
2023/02/23 08:08:51;;;;;;;9.67;4.03;;;;;;;-145.69;100.00;52422.59;5135296;27;20197;-84
2023/02/23 08:11:18;;;;;;;10.40;4.00;;;;;;;-145.69;100.00;52444.38;5135565;27;20197;-84
2023/02/23 08:13:44;;;;;;;10.57;4.00;;;;;;;-145.69;100.00;52442.41;5135422;27;20279;-84
2023/02/23 08:16:12;;;;;;;12.67;4.30;;;;;;;-145.69;100.00;52466.16;5135147;27;20834;-85
2023/02/23 08:18:38;;;;;;;7.93;4.10;;;;;;;-145.69;100.00;52462.22;5135355;27;20196;-84
2023/02/23 08:21:06;;;;;;;10.80;4.50;;;;;;;-145.69;100.00;52418.63;5133892;27;20324;-83
2023/02/23 08:23:34;;;;;;;11.10;4.20;;;;;;;-145.69;100.00;52400.81;5134901;27;20289;-84
2023/02/23 08:26:01;;;;;;;8.63;3.90;;;;;;;-145.69;100.00;52404.78;5135224;27;20197;-84
2023/02/23 08:28:28;;;;;;;9.00;3.77;;;;;;;-145.69;100.00;52432.50;5135191;27;20196;-84
2023/02/23 08:30:54;;;;;;;8.43;3.77;;;;;;;-145.69;100.00;52404.78;5134580;27;20189;-84
2023/02/23 08:33:22;;;;;;;11.73;3.90;;;;;;;-145.69;100.00;52434.47;5134798;27;20188;-84
2023/02/23 08:35:49;;;;;;;10.33;4.20;;;;;;;-145.69;100.00;52404.78;5134793;27;20196;-84
2023/02/23 08:38:17;;;;;;;8.35;4.20;;;;;;;-145.69;100.00;52416.66;5134693;27;20284;-84
2023/02/23 08:40:43;;;;;;;8.57;3.47;;;;;;;-145.69;100.00;52412.69;5134834;27;20546;-84
2023/02/23 08:43:10;;;;;;;11.48;4.53;;;;;;;-145.69;100.00;52404.78;5134688;27;20583;-84
2023/02/23 08:45:38;;;;;;;10.68;4.57;;;;;;;-145.69;100.00;52420.63;5134675;27;20205;-84
2023/02/23 08:48:05;;;;;;;8.90;4.10;;;;;;;-145.69;100.00;52402.78;5134623;27;20201;-84
2023/02/23 08:50:33;;;;;;;12.48;4.20;;;;;;;-145.69;100.00;52408.75;5134658;27;20203;-83
2023/02/23 08:52:59;;;;;;;8.38;4.28;;;;;;;-145.69;100.00;52386.97;5135185;27;20205;-85
2023/02/23 08:55:26;;;;;;;9.15;3.75;;;;;;;-145.69;100.00;52396.84;5134371;27;20200;-84
2023/02/23 08:57:53;;;;;;;8.68;4.18;;;;;;;-145.69;100.00;52418.63;5135363;27;20199;-84
2023/02/23 09:00:20;;;;;;;14.70;4.28;;;;;;;-145.69;100.00;52392.91;5136197;27;20203;-84
2023/02/23 09:02:47;;;;;;;10.60;4.30;;;;;;;-145.69;100.00;52394.88;5135893;27;20193;-84
2023/02/23 09:05:14;;;;;;;14.68;4.40;;;;;;;-145.69;100.00;52420.63;5134748;27;20691;-84
2023/02/23 09:07:44;;;;;;;10.13;4.20;;;;;;;-145.69;100.00;52365.16;5135137;27;20201;-84
2023/02/23 09:10:13;;;;;;;9.18;4.03;;;;;;;-145.69;100.00;52377.06;5137000;27;20200;-85
2023/02/23 09:12:39;;;;;;;9.40;4.45;;;;;;;-145.69;100.00;52381.00;5120515;27;20652;-85
2023/02/23 09:15:07;;;;;;;10.15;4.65;;;;;;;-145.69;100.00;52373.09;5114141;28;20290;-86
2023/02/23 09:17:33;;;;;;;10.32;4.55;;;;;;;-145.69;100.00;52392.91;5113662;28;20201;-83
2023/02/23 09:20:00;;;;;;;14.57;4.72;;;;;;;-145.69;100.00;52365.16;5114000;28;20194;-86
2023/02/23 09:22:27;;;;;;;11.55;4.75;;;;;;;-145.69;100.00;52383.00;5113988;28;20681;-85
2023/02/23 09:24:55;;;;;;;12.07;4.85;;;;;;;-145.69;100.00;52381.00;5113616;28;20228;-85
2023/02/23 09:27:21;;;;;;;12.57;4.70;;;;;;;-145.69;100.00;52357.25;5113682;28;20258;-85
2023/02/23 09:29:48;;;;;;;11.18;4.20;;;;;;;-145.69;100.00;52357.25;5113635;28;20200;-84
2023/02/23 09:32:14;;;;;;;13.90;4.78;;;;;;;-145.69;100.00;52377.06;5128336;27;20207;-84
2023/02/23 09:34:41;;;;;;;8.73;3.92;;;;;;;-145.69;99.09;52396.84;5134211;27;20196;-85
2023/02/23 09:37:07;;;;;;;8.20;3.20;;;;;;;-145.69;93.66;52355.28;5134147;28;20197;-84
2023/02/23 09:39:34;;;;;;;10.05;3.63;;;;;;;-145.69;90.57;52375.06;5133612;28;20278;-84
2023/02/23 09:42:15;;;;;;;9.52;4.05;;;;;;;-145.69;93.09;52353.28;5134029;28;20258;-84
2023/02/23 09:44:56;;;;;;;10.43;4.32;;;;;;;-145.69;100.00;52434.47;5133785;27;20228;-84
2023/02/23 09:47:39;;;;;;;13.10;4.22;;;;;;;-145.69;100.00;52410.72;5134061;28;20197;-84
2023/02/23 09:50:14;;;;;;;11.88;4.00;;;;;;;-145.69;100.00;52398.84;5134099;27;20192;-84
2023/02/23 09:52:45;;;;;;;14.25;4.20;;;;;;;-145.69;100.00;52365.16;5134152;28;20212;-84
2023/02/23 09:55:13;;;;;;;10.73;5.00;;;;;;;-145.69;100.00;52400.81;5132594;28;20439;-84
2023/02/23 09:57:45;;;;;;;10.25;4.15;;;;;;;-145.69;100.00;52381.00;5134198;27;20554;-84
2023/02/23 10:00:19;;;;;;;14.20;4.30;;;;;;;-145.69;100.00;52396.84;5134066;27;20246;-84
2023/02/23 10:03:01;;;;;;;10.10;3.97;;;;;;;-145.69;100.00;52373.09;5133738;27;20197;-84
2023/02/23 10:05:30;;;;;;;12.52;4.82;;;;;;;-145.69;100.00;52371.13;5133964;27;20625;-84
2023/02/23 10:08:02;;;;;;;12.77;4.68;;;;;;;-145.69;100.00;52355.28;5137778;27;20647;-84
2023/02/23 10:10:40;;;;;;;13.73;4.68;;;;;;;-145.69;100.00;52373.09;5137943;27;20253;-84
2023/02/23 10:13:15;;;;;;;9.95;4.70;;;;;;;-145.69;100.00;52386.97;5137725;27;20199;-84
2023/02/23 10:15:47;;;;;;;15.88;4.55;;;;;;;-145.69;100.00;52341.41;5137793;27;20295;-84
2023/02/23 10:18:26;;;;;;;12.10;4.55;;;;;;;-145.69;100.00;52329.53;5137694;27;20207;-84
2023/02/23 10:21:03;;;;;;;10.98;5.25;;;;;;;-145.69;100.00;52379.03;5137691;27;20196;-84
2023/02/23 10:23:33;;;;;;;13.30;4.97;;;;;;;-145.69;100.00;52367.16;5137513;27;20251;-83
2023/02/23 10:26:02;;;;;;;14.50;4.68;;;;;;;-145.69;100.00;52351.31;5137282;27;20670;-84
2023/02/23 10:28:35;;;;;;;12.70;4.90;;;;;;;-145.69;94.16;52353.28;5137246;27;20308;-84
2023/02/23 10:31:07;;;;;;;13.55;4.32;;;;;;;-145.69;98.53;52365.16;5137225;27;20577;-84
2023/02/23 10:33:38;;;;;;;9.77;4.88;;;;;;;-145.69;100.00;52365.16;5137367;27;20197;-84
2023/02/23 10:36:14;;;;;;;10.90;4.20;;;;;;;-145.69;100.00;52371.13;5137203;27;20247;-84
2023/02/23 10:38:40;;;;;;;8.48;4.38;;;;;;;-145.69;93.47;52359.22;5137420;27;20531;-84
2023/02/23 10:41:08;;;;;;;11.18;4.68;;;;;;;-145.69;87.59;52339.44;5136812;27;20653;-84
2023/02/23 10:43:37;;;;;;;7.53;3.58;;;;;;;-145.69;85.56;52333.47;5137126;27;20228;-84
2023/02/23 10:46:05;;;;;;;9.05;4.22;;;;;;;-145.69;85.36;52333.47;5136990;27;20202;-84
2023/02/23 10:48:37;;;;;;;7.53;3.70;;;;;;;-145.69;77.22;52323.59;5137146;27;20208;-84
2023/02/23 10:51:04;;;;;;;9.30;4.03;;;;;;;-145.69;85.88;52339.44;5136880;27;20192;-83
2023/02/23 10:53:34;;;;;;;11.07;4.00;;;;;;;-145.69;85.43;52353.28;5136748;27;20196;-84
2023/02/23 10:56:05;;;;;;;10.82;3.92;;;;;;;-145.69;86.70;52349.31;5136835;27;20731;-84
2023/02/23 10:58:39;;;;;;;9.23;3.80;;;;;;;-145.69;90.00;52357.25;5136910;27;20207;-85
2023/02/23 11:01:08;;;;;;;11.73;4.05;;;;;;;-145.69;92.61;52345.38;5136513;27;21421;-84
2023/02/23 11:03:39;;;;;;;9.35;4.32;;;;;;;-145.69;89.31;52347.34;5136560;27;20323;-84
2023/02/23 11:06:06;;;;;;;9.77;3.70;;;;;;;-145.69;87.41;52339.44;5136654;27;20207;-84
2023/02/23 11:08:34;;;;;;;8.98;3.70;;;;;;;-145.69;89.85;52369.13;5134417;27;20197;-83
2023/02/23 11:11:16;;;;;;;13.70;3.78;;;;;;;-145.69;92.63;52369.13;5132450;27;20204;-84
2023/02/23 11:13:45;;;;;;;10.18;3.80;;;;;;;-145.69;90.07;52357.25;5136560;27;20581;-84
2023/02/23 11:16:15;;;;;;;11.10;4.38;;;;;;;-145.69;88.55;52353.28;5136302;27;20677;-83
2023/02/23 11:18:49;;;;;;;8.60;3.58;;;;;;;-145.69;89.99;52333.47;5135530;27;20260;-84
2023/02/23 11:21:23;;;;;;;11.50;4.10;;;;;;;-145.69;91.24;52345.38;5135978;27;20667;-84
2023/02/23 11:23:53;;;;;;;14.55;4.63;;;;;;;-145.69;91.71;52353.28;5136384;27;20251;-84
2023/02/23 11:26:29;;;;;;;12.00;4.90;;;;;;;-145.69;90.72;52369.13;5136249;27;20203;-84
2023/02/23 11:28:59;;;;;;;12.43;4.32;;;;;;;-145.69;92.87;52386.97;5136271;27;20614;-84
2023/02/23 11:31:33;;;;;;;12.52;4.80;;;;;;;-145.69;95.29;52367.16;5136163;27;20201;-83
2023/02/23 11:34:05;;;;;;;14.55;5.32;;;;;;;-145.69;100.00;52351.31;5136327;27;20281;-84
2023/02/23 11:36:36;;;;;;;13.52;5.35;;;;;;;-145.69;100.00;52349.31;5135543;27;20685;-84
2023/02/23 11:39:18;;;;;;;14.73;5.22;;;;;;;-145.69;100.00;52386.97;5136050;27;20231;-84
2023/02/23 11:41:45;;;;;;;15.80;5.18;;;;;;;-145.69;100.00;52396.84;5115633;28;20552;-84
2023/02/23 11:44:20;;;;;;;13.00;5.40;;;;;;;-145.69;100.00;52353.28;5115547;28;20244;-84
2023/02/23 11:46:50;;;;;;;11.23;5.53;;;;;;;-145.69;100.00;52357.25;5115370;28;20207;-84
2023/02/23 11:49:21;;;;;;;11.32;5.18;;;;;;;-145.69;100.00;52365.16;5115358;28;20204;-83
2023/02/23 11:51:50;;;;;;;17.23;5.22;;;;;;;-145.69;100.00;52349.31;5115364;28;20201;-84
2023/02/23 11:54:23;;;;;;;11.00;5.28;;;;;;;-145.69;100.00;52365.16;5115319;28;20580;-84
2023/02/23 11:56:52;;;;;;;14.63;6.03;;;;;;;-145.69;100.00;52329.53;5115032;28;20208;-84
2023/02/23 11:59:27;;;;;;;12.85;5.07;;;;;;;-145.69;100.00;52349.31;5115055;28;20202;-83
2023/02/23 12:02:01;;;;;;;15.80;5.68;;;;;;;-145.69;100.00;52369.13;5124402;27;20196;-84
2023/02/23 12:04:30;;;;;;;14.68;5.35;;;;;;;-145.69;100.00;52329.53;5135318;27;20235;-84
2023/02/23 12:07:37;;;;;;;16.25;5.72;;;;;;;-145.69;100.00;52361.22;5135385;27;20207;-84
2023/02/23 12:10:12;;;;;;;16.20;5.80;;;;;;;-145.69;100.00;52351.31;5122627;27;20237;-84
2023/02/23 12:12:46;;;;;;;14.15;5.35;;;;;;;-145.69;100.00;52353.28;5135317;27;20200;-84
2023/02/23 12:15:24;;;;;;;16.15;5.97;;;;;;;-145.69;100.00;52359.22;5135503;27;20233;-83
2023/02/23 12:17:57;;;;;;;12.90;5.97;;;;;;;-145.69;100.00;52361.22;5135255;27;20201;-84
2023/02/23 12:20:28;;;;;;;12.57;5.60;;;;;;;-145.69;100.00;52363.19;5135220;27;20203;-84
2023/02/23 12:22:59;;;;;;;14.15;6.55;;;;;;;-145.69;100.00;52383.00;5135102;27;20211;-83
2023/02/23 12:25:30;;;;;;;12.95;5.47;;;;;;;-145.69;100.00;52353.28;5135312;27;20287;-84
2023/02/23 12:28:05;;;;;;;15.75;5.72;;;;;;;-145.69;100.00;52361.22;5135034;27;20280;-84
2023/02/23 12:30:42;;;;;;;15.63;5.72;;;;;;;-145.69;100.00;52361.22;5135133;27;20556;-83
2023/02/23 12:33:13;;;;;;;15.10;6.10;;;;;;;-145.69;100.00;52361.22;5134780;27;20540;-84
2023/02/23 12:35:46;;;;;;;12.68;5.72;;;;;;;-145.69;100.00;52371.13;5134779;27;20231;-84